createdAt,value
2023-04-04T00:01:34.016Z,6.06
2023-04-04T00:06:36.494Z,5.98
2023-04-04T00:11:38.549Z,6.12
2023-04-04T00:16:40.501Z,6.21
2023-04-04T00:21:42.192Z,6.20
2023-04-04T00:26:43.865Z,6.15
2023-04-04T00:31:45.837Z,6.16
2023-04-04T00:36:47.864Z,6.12
2023-04-04T00:41:50.395Z,6.01
2023-04-04T00:46:53.096Z,5.98
2023-04-04T00:51:55.425Z,5.88
2023-04-04T00:56:58.224Z,5.94
2023-04-04T01:02:00.822Z,5.95
2023-04-04T01:07:03.157Z,5.94
2023-04-04T01:12:05.577Z,5.80
2023-04-04T01:17:08.123Z,5.88
2023-04-04T01:22:12.598Z,5.75
2023-04-04T01:27:16.300Z,5.85
2023-04-04T01:32:51.513Z,5.96
2023-04-04T01:38:17.231Z,5.86
2023-04-04T01:43:19.409Z,5.89
2023-04-04T01:48:21.168Z,5.94
2023-04-04T01:53:26.838Z,6.01
2023-04-04T01:58:28.729Z,5.95
2023-04-04T02:03:30.771Z,5.98
2023-04-04T02:08:32.359Z,6.02
2023-04-04T02:13:34.148Z,5.99
2023-04-04T02:18:36.398Z,5.94
2023-04-04T02:23:40.296Z,5.87
2023-04-04T02:28:42.030Z,5.77
2023-04-04T02:33:45.018Z,5.81
2023-04-04T02:38:47.153Z,5.78
2023-04-04T02:43:49.491Z,5.79
2023-04-04T02:48:53.437Z,5.77
2023-04-04T02:53:55.173Z,5.71
2023-04-04T02:59:05.334Z,5.59
2023-04-04T03:04:07.114Z,5.48
2023-04-04T03:09:10.755Z,5.31
2023-04-04T03:14:12.840Z,5.30
2023-04-04T03:19:15.105Z,5.16
2023-04-04T03:24:17.203Z,5.22
2023-04-04T03:29:19.414Z,5.21
2023-04-04T03:34:21.544Z,5.12
2023-04-04T03:39:29.857Z,5.01
2023-04-04T03:44:31.484Z,5.05
2023-04-04T03:49:34.618Z,4.92
2023-04-04T03:54:36.770Z,4.89
2023-04-04T03:59:39.960Z,4.90
2023-04-04T04:04:41.818Z,4.82
2023-04-04T04:09:43.610Z,4.81
2023-04-04T04:14:45.329Z,4.75
2023-04-04T04:19:47.139Z,4.74
2023-04-04T04:24:49.082Z,4.68
2023-04-04T04:29:50.872Z,4.68
2023-04-04T04:34:53.011Z,4.64
2023-04-04T04:40:02.036Z,4.56
2023-04-04T04:45:12.210Z,4.64
2023-04-04T04:50:18.372Z,4.55
2023-04-04T04:55:23.619Z,4.51
2023-04-04T05:00:37.961Z,4.49
2023-04-04T05:05:45.206Z,4.42
2023-04-04T05:10:50.814Z,4.45
2023-04-04T05:15:53.866Z,4.34
2023-04-04T05:20:56.426Z,4.33
2023-04-04T05:26:01.413Z,4.42
2023-04-04T05:31:07.906Z,4.54
2023-04-04T05:36:13.068Z,4.43
2023-04-04T05:41:24.904Z,4.37
2023-04-04T05:46:31.380Z,4.37
2023-04-04T05:51:33.146Z,4.43
2023-04-04T05:56:47.602Z,4.47
2023-04-04T06:02:09.861Z,4.21
2023-04-04T06:07:16.260Z,4.24
2023-04-04T06:12:18.043Z,4.36
2023-04-04T06:17:21.103Z,4.58
2023-04-04T06:22:22.821Z,4.79
2023-04-04T06:27:27.365Z,4.76
2023-04-04T06:32:32.192Z,4.86
2023-04-04T06:37:34.817Z,4.94
2023-04-04T06:42:52.387Z,5.03
2023-04-04T06:47:56.566Z,5.03
2023-04-04T06:52:58.516Z,5.19
2023-04-04T06:58:00.302Z,5.12
2023-04-04T07:03:02.914Z,5.10
2023-04-04T07:08:06.789Z,5.14
2023-04-04T07:13:08.536Z,5.24
2023-04-04T07:18:10.298Z,5.44
2023-04-04T07:23:12.398Z,5.57
2023-04-04T07:28:14.058Z,5.89
2023-04-04T07:33:15.788Z,5.91
2023-04-04T07:38:17.701Z,6.06
2023-04-04T07:43:19.446Z,6.16
2023-04-04T07:48:22.900Z,6.18
2023-04-04T07:53:24.772Z,6.32
2023-04-04T07:58:26.404Z,6.53
2023-04-04T08:03:28.358Z,6.52
2023-04-04T08:08:30.096Z,6.62
2023-04-04T08:13:31.920Z,6.80
2023-04-04T08:18:33.596Z,7.16
2023-04-04T08:23:35.340Z,7.58
2023-04-04T08:28:37.040Z,7.52
2023-04-04T08:33:47.332Z,7.89
2023-04-04T08:38:49.637Z,7.89
2023-04-04T08:43:54.832Z,8.10
2023-04-04T08:48:57.585Z,8.27
2023-04-04T08:54:00.660Z,8.41
2023-04-04T08:59:03.443Z,8.78
2023-04-04T09:04:06.463Z,8.71
2023-04-04T09:09:09.204Z,8.91
2023-04-04T09:14:10.935Z,9.12
2023-04-04T09:19:12.924Z,9.48
2023-04-04T09:24:15.985Z,9.70
2023-04-04T09:29:19.799Z,9.86
2023-04-04T09:34:21.659Z,9.98
2023-04-04T09:39:23.774Z,10.12
2023-04-04T09:44:26.075Z,10.30
2023-04-04T09:49:27.909Z,10.26
2023-04-04T09:54:31.423Z,10.52
2023-04-04T09:59:34.367Z,10.43
2023-04-04T10:04:36.606Z,11.17
2023-04-04T10:09:38.916Z,10.44
2023-04-04T10:14:41.002Z,11.27
2023-04-04T10:19:44.236Z,11.18
2023-04-04T10:24:46.267Z,11.44
2023-04-04T10:29:47.996Z,11.27
2023-04-04T10:35:00.765Z,11.35
2023-04-04T10:40:10.395Z,11.51
2023-04-04T10:45:21.117Z,11.50
2023-04-04T10:50:24.077Z,12.06
2023-04-04T10:55:26.549Z,12.05
2023-04-04T11:00:28.371Z,12.01
2023-04-04T11:05:37.607Z,12.44
2023-04-04T11:10:44.634Z,12.76
2023-04-04T11:15:57.733Z,12.60
2023-04-04T11:21:05.571Z,13.03
2023-04-04T11:26:08.498Z,12.87
2023-04-04T11:31:20.494Z,13.38
2023-04-04T11:36:41.713Z,13.30
2023-04-04T11:41:45.252Z,13.23
2023-04-04T11:46:51.266Z,13.29
2023-04-04T11:51:52.952Z,13.52
2023-04-04T11:56:54.763Z,13.56
2023-04-04T12:01:57.265Z,13.76
2023-04-04T12:06:59.152Z,13.28
2023-04-04T12:12:01.118Z,13.74
2023-04-04T12:17:03.102Z,13.80
2023-04-04T12:22:05.432Z,13.88
2023-04-04T12:27:08.254Z,13.68
2023-04-04T21:43:05.242Z,8.28
2023-04-04T22:18:09.289Z,8.08
2023-04-04T22:23:47.917Z,7.98
2023-04-04T22:30:15.365Z,7.80
2023-04-04T22:36:36.239Z,7.75
2023-04-04T22:59:38.693Z,7.81
2023-04-04T23:11:53.900Z,7.58
2023-04-04T23:23:05.842Z,7.67
2023-04-04T23:28:43.962Z,7.56
2023-04-04T23:46:09.194Z,7.53
